createdAt,value
2022-08-25T00:02:56.761Z,5.03
2022-08-25T00:08:03.577Z,4.53
2022-08-25T00:13:08.291Z,4.65
2022-08-25T00:18:19.640Z,3.75
2022-08-25T00:23:24.632Z,4.35
2022-08-25T00:28:31.620Z,4.85
2022-08-25T00:33:37.541Z,4.50
2022-08-25T00:38:41.990Z,5.00
2022-08-25T00:43:51.879Z,5.32
2022-08-25T00:49:04.339Z,6.13
2022-08-25T00:54:10.483Z,5.97
2022-08-25T00:59:16.476Z,4.70
2022-08-25T01:04:22.887Z,6.75
2022-08-25T01:09:27.599Z,6.63
2022-08-25T01:14:33.726Z,6.22
2022-08-25T01:19:39.306Z,6.82
2022-08-25T01:24:53.946Z,7.47
2022-08-25T01:29:58.830Z,5.55
2022-08-25T01:35:03.855Z,6.80
2022-08-25T01:40:10.615Z,7.90
2022-08-25T01:45:15.208Z,12.02
2022-08-25T01:50:19.328Z,11.52
2022-08-25T01:55:25.395Z,10.80
2022-08-25T02:00:29.447Z,10.45
2022-08-25T02:05:34.533Z,9.50
2022-08-25T02:10:41.156Z,10.10
2022-08-25T02:15:48.988Z,11.32
2022-08-25T02:20:54.336Z,11.77
2022-08-25T02:25:59.762Z,12.52
2022-08-25T02:31:04.515Z,12.15
2022-08-25T02:36:09.500Z,12.27
2022-08-25T02:41:16.970Z,14.95
2022-08-25T02:46:22.479Z,13.32
2022-08-25T02:51:28.642Z,13.48
2022-08-25T02:56:35.312Z,13.13
2022-08-25T03:01:39.515Z,12.27
2022-08-25T03:06:43.592Z,11.30
2022-08-25T03:11:49.193Z,12.88
2022-08-25T03:16:53.380Z,12.50
2022-08-25T03:21:59.582Z,10.48
2022-08-25T03:27:05.914Z,11.07
2022-08-25T03:32:11.678Z,10.45
2022-08-25T03:37:18.998Z,12.18
2022-08-25T03:42:26.776Z,9.85
2022-08-25T03:47:31.303Z,10.27
2022-08-25T03:52:40.323Z,9.25
2022-08-25T03:57:47.962Z,10.05
2022-08-25T04:02:52.129Z,8.75
2022-08-25T04:07:56.618Z,10.43
2022-08-25T04:13:01.970Z,10.45
2022-08-25T04:18:06.343Z,10.80
2022-08-25T04:23:11.776Z,8.65
2022-08-25T04:28:17.163Z,9.30
2022-08-25T04:33:21.347Z,9.98
2022-08-25T04:38:25.332Z,9.20
2022-08-25T04:43:31.655Z,8.65
2022-08-25T04:48:36.306Z,10.05
2022-08-25T04:53:41.770Z,10.82
2022-08-25T04:58:47.951Z,9.30
2022-08-25T05:03:56.648Z,9.85
2022-08-25T05:14:12.197Z,7.03
2022-08-25T05:19:16.661Z,7.50
2022-08-25T05:24:22.316Z,7.55
2022-08-25T05:29:28.283Z,8.85
2022-08-25T05:34:32.474Z,7.90
2022-08-25T05:39:36.540Z,8.82
2022-08-25T05:44:42.104Z,8.48
2022-08-25T05:49:46.152Z,7.97
2022-08-25T05:54:50.288Z,7.40
2022-08-25T05:59:55.671Z,7.72
2022-08-25T06:04:59.935Z,8.80
2022-08-25T06:10:05.001Z,7.07
2022-08-25T06:15:12.650Z,8.10
2022-08-25T06:20:19.504Z,6.65
2022-08-25T06:25:27.952Z,8.05
2022-08-25T06:30:33.963Z,7.93
2022-08-25T06:35:38.413Z,6.18
2022-08-25T06:40:42.930Z,7.03
2022-08-25T06:45:49.004Z,5.75
2022-08-25T06:50:53.124Z,6.70
2022-08-25T06:56:00.515Z,6.05
2022-08-25T07:01:23.527Z,6.75
2022-08-25T07:06:32.329Z,7.40
2022-08-25T07:11:36.806Z,5.43
2022-08-25T07:16:48.518Z,7.10
2022-08-25T07:21:55.308Z,6.43
2022-08-25T07:26:59.834Z,6.38
2022-08-25T07:32:07.226Z,6.47
2022-08-25T07:37:13.343Z,6.32
2022-08-25T07:42:19.125Z,6.10
2022-08-25T07:47:24.696Z,5.68
2022-08-25T07:52:29.698Z,5.80
2022-08-25T07:57:34.586Z,6.97
2022-08-25T08:02:41.612Z,5.13
2022-08-25T08:07:46.623Z,5.55
2022-08-25T08:12:51.054Z,4.13
2022-08-25T08:17:56.853Z,4.20
2022-08-25T08:23:02.689Z,4.30
2022-08-25T08:28:10.857Z,3.88
2022-08-25T08:33:16.649Z,3.45
2022-08-25T08:38:22.293Z,3.00
2022-08-25T08:43:33.410Z,4.32
2022-08-25T08:48:53.576Z,3.97
2022-08-25T08:54:06.530Z,3.40
2022-08-25T08:59:29.911Z,3.58
2022-08-25T09:04:44.127Z,4.40
2022-08-25T09:09:52.180Z,3.97
2022-08-25T09:15:12.783Z,3.45
2022-08-25T09:20:38.930Z,3.65
2022-08-25T09:25:54.654Z,4.05
2022-08-25T09:31:02.274Z,3.42
2022-08-25T09:36:08.801Z,3.85
2022-08-25T09:41:17.772Z,3.78
2022-08-25T09:46:28.205Z,3.58
2022-08-25T09:51:38.125Z,3.80
2022-08-25T09:56:51.757Z,3.22
2022-08-25T10:01:58.358Z,3.80
2022-08-25T10:07:20.196Z,2.97
2022-08-25T10:12:31.718Z,4.07
2022-08-25T10:17:36.502Z,2.95
2022-08-25T10:22:43.969Z,2.90
2022-08-25T10:27:55.479Z,2.37
2022-08-25T10:33:17.657Z,2.80
2022-08-25T10:38:37.464Z,3.40
2022-08-25T10:43:50.642Z,3.15
2022-08-25T10:49:03.161Z,2.83
2022-08-25T10:54:34.358Z,2.75
2022-08-25T11:00:04.627Z,3.53
2022-08-25T11:05:12.875Z,3.13
2022-08-25T11:10:24.093Z,2.92
2022-08-25T11:15:34.264Z,2.38
2022-08-25T11:20:43.626Z,3.00
2022-08-25T11:25:53.238Z,3.15
2022-08-25T11:30:59.564Z,2.80
2022-08-25T11:36:12.540Z,3.50
2022-08-25T11:41:31.807Z,3.03
2022-08-25T11:46:49.632Z,3.30
2022-08-25T11:51:55.904Z,2.97
2022-08-25T11:57:11.128Z,5.13
2022-08-25T12:02:33.350Z,4.00
2022-08-25T12:08:22.009Z,3.70
2022-08-25T12:13:41.069Z,3.50
2022-08-25T12:18:50.394Z,4.70
2022-08-25T12:24:11.059Z,3.72
2022-08-25T12:29:22.447Z,4.75
2022-08-25T12:34:40.321Z,3.10
2022-08-25T12:39:54.717Z,3.97
2022-08-25T12:50:40.908Z,3.67
2022-08-25T12:55:51.059Z,5.68
2022-08-25T13:01:27.565Z,3.90
2022-08-25T13:06:55.380Z,3.72
2022-08-25T13:12:09.267Z,3.42
2022-08-25T13:17:26.930Z,3.92
2022-08-25T13:22:31.811Z,4.28
2022-08-25T13:27:38.364Z,4.38
2022-08-25T13:32:45.134Z,3.78
2022-08-25T13:37:49.875Z,3.72
2022-08-25T13:42:59.352Z,3.58
2022-08-25T13:48:07.828Z,3.90
2022-08-25T13:53:30.733Z,3.97
2022-08-25T13:58:44.458Z,4.63
2022-08-25T14:03:52.816Z,3.28
2022-08-25T14:09:16.579Z,3.17
2022-08-25T14:14:35.115Z,3.67
2022-08-25T14:24:54.086Z,3.20
2022-08-25T14:29:58.432Z,3.92
2022-08-25T14:35:09.918Z,3.85
2022-08-25T14:40:18.056Z,3.75
2022-08-25T14:45:23.000Z,3.47
2022-08-25T14:50:28.608Z,4.65
2022-08-25T14:55:33.530Z,2.95
2022-08-25T15:00:43.854Z,3.30
2022-08-25T15:05:51.297Z,2.88
2022-08-25T15:10:55.932Z,3.28
2022-08-25T15:16:01.152Z,2.83
2022-08-25T15:21:08.698Z,2.95
2022-08-25T15:26:14.590Z,3.85
2022-08-25T15:31:20.569Z,4.07
2022-08-25T15:36:27.887Z,2.85
2022-08-25T15:41:31.964Z,2.92
2022-08-25T15:46:39.534Z,3.38
2022-08-25T15:51:45.610Z,3.42
2022-08-25T15:56:50.148Z,3.30
2022-08-25T16:01:56.195Z,2.75
2022-08-25T16:07:02.140Z,3.42
2022-08-25T16:12:08.865Z,2.45
2022-08-25T16:17:15.080Z,3.53
2022-08-25T16:22:21.418Z,3.97
2022-08-25T16:27:27.085Z,4.60
2022-08-25T16:32:42.783Z,3.03
2022-08-25T16:37:49.728Z,3.30
2022-08-25T16:42:55.317Z,2.83
2022-08-25T16:47:59.388Z,3.38
2022-08-25T16:53:23.914Z,3.40
2022-08-25T16:58:28.091Z,3.60
2022-08-25T17:03:34.698Z,3.10
2022-08-25T17:08:41.476Z,3.38
2022-08-25T17:13:49.704Z,4.50
2022-08-25T17:18:55.357Z,2.85
2022-08-25T17:24:01.746Z,3.53
2022-08-25T17:29:09.506Z,4.13
2022-08-25T17:34:16.366Z,3.15
2022-08-25T17:39:23.145Z,4.80
2022-08-25T17:44:27.472Z,4.35
2022-08-25T17:49:32.687Z,4.60
2022-08-25T17:54:38.211Z,4.30
2022-08-25T17:59:42.305Z,3.92
2022-08-25T18:04:46.646Z,4.15
2022-08-25T18:09:54.080Z,5.13
2022-08-25T18:14:59.384Z,3.58
2022-08-25T18:20:06.129Z,3.97
2022-08-25T18:25:15.443Z,4.10
2022-08-25T18:30:21.662Z,3.60
2022-08-25T18:35:31.585Z,3.88
2022-08-25T18:40:37.464Z,4.95
2022-08-25T18:45:44.444Z,3.38
2022-08-25T18:50:50.627Z,3.75
2022-08-25T18:55:58.979Z,3.55
2022-08-25T19:01:05.657Z,3.53
2022-08-25T19:06:11.199Z,3.33
2022-08-25T19:11:17.674Z,3.22
2022-08-25T19:16:40.899Z,3.95
2022-08-25T19:21:48.240Z,2.63
2022-08-25T19:26:54.863Z,3.15
2022-08-25T19:32:01.151Z,4.15
2022-08-25T19:37:06.772Z,3.22
2022-08-25T19:42:35.223Z,3.70
2022-08-25T19:47:40.048Z,3.63
2022-08-25T19:52:44.496Z,3.20
2022-08-25T19:57:50.295Z,3.58
2022-08-25T20:02:54.976Z,3.20
2022-08-25T20:07:59.703Z,3.72
2022-08-25T20:13:05.981Z,3.50
2022-08-25T20:18:10.649Z,2.60
2022-08-25T20:23:32.217Z,3.63
2022-08-25T20:28:37.832Z,4.20
2022-08-25T20:33:42.270Z,2.70
2022-08-25T20:38:49.273Z,3.35
2022-08-25T20:43:55.427Z,3.47
2022-08-25T20:49:00.959Z,3.42
2022-08-25T20:54:07.570Z,3.25
2022-08-25T20:59:13.183Z,2.40
2022-08-25T21:04:22.141Z,3.33
2022-08-25T21:09:27.432Z,2.28
2022-08-25T21:14:33.176Z,3.30
2022-08-25T21:19:37.492Z,2.97
2022-08-25T21:24:45.031Z,2.60
2022-08-25T21:29:55.248Z,3.40
2022-08-25T21:34:59.780Z,2.63
2022-08-25T21:40:07.034Z,3.88
2022-08-25T21:45:14.608Z,3.25
2022-08-25T21:50:19.241Z,2.92
2022-08-25T21:55:24.231Z,3.33
2022-08-25T22:00:29.870Z,2.85
2022-08-25T22:05:37.621Z,3.13
2022-08-25T22:10:44.853Z,3.20
2022-08-25T22:15:52.131Z,3.17
2022-08-25T22:20:57.436Z,2.50
2022-08-25T22:26:02.272Z,2.72
2022-08-25T22:31:08.091Z,2.88
2022-08-25T22:36:17.164Z,3.22
2022-08-25T22:41:24.056Z,3.05
2022-08-25T22:46:32.578Z,2.67
2022-08-25T22:51:37.693Z,2.90
2022-08-25T22:56:42.493Z,3.30
2022-08-25T23:01:49.747Z,2.97
2022-08-25T23:06:54.165Z,3.35
2022-08-25T23:11:59.370Z,3.78
2022-08-25T23:17:07.492Z,3.10
2022-08-25T23:22:12.933Z,3.17
2022-08-25T23:27:22.620Z,2.97
2022-08-25T23:32:28.233Z,3.20
2022-08-25T23:37:32.563Z,2.92
2022-08-25T23:42:36.551Z,3.10
2022-08-25T23:47:44.214Z,3.13
2022-08-25T23:52:48.215Z,3.40
2022-08-25T23:57:52.234Z,3.15
